createdAt,value
2022-09-20T00:01:33.451Z,102076.99
2022-09-20T00:04:39.788Z,102071.37
2022-09-20T00:07:27.368Z,102068.27
2022-09-20T00:10:29.983Z,102073.46
2022-09-20T00:13:24.765Z,102071.27
2022-09-20T00:16:07.092Z,102069.02
2022-09-20T00:18:45.799Z,102070.32
2022-09-20T00:21:29.618Z,102071.50
2022-09-20T00:24:11.190Z,102076.18
2022-09-20T00:27:14.397Z,102073.33
2022-09-20T00:29:54.414Z,102077.48
2022-09-20T00:32:32.147Z,102068.91
2022-09-20T00:35:21.256Z,102066.70
2022-09-20T00:38:15.147Z,102069.18
2022-09-20T00:41:09.200Z,102067.28
2022-09-20T00:44:27.108Z,102065.42
2022-09-20T00:46:57.993Z,102060.84
2022-09-20T00:49:52.444Z,102050.05
2022-09-20T00:52:46.282Z,102054.27
2022-09-20T00:55:35.224Z,102050.70
2022-09-20T00:58:49.948Z,102043.09
2022-09-20T01:01:45.426Z,102047.34
2022-09-20T01:04:25.589Z,102049.01
2022-09-20T01:07:18.586Z,102048.16
2022-09-20T01:10:17.231Z,102044.79
2022-09-20T01:13:06.870Z,102046.78
2022-09-20T01:15:45.908Z,102038.87
2022-09-20T01:18:39.330Z,102046.42
2022-09-20T01:21:14.076Z,102050.77
2022-09-20T01:24:13.087Z,102044.13
2022-09-20T01:27:13.283Z,102040.93
2022-09-20T01:30:12.173Z,102041.91
2022-09-20T01:33:23.542Z,102040.83
2022-09-20T01:36:25.984Z,102028.18
2022-09-20T01:39:29.005Z,102031.02
2022-09-20T01:42:09.403Z,102031.48
2022-09-20T01:44:59.017Z,102030.96
2022-09-20T01:48:03.455Z,102030.11
2022-09-20T01:51:02.422Z,102029.48
2022-09-20T01:54:03.587Z,102035.01
2022-09-20T01:56:52.502Z,102032.98
2022-09-20T02:03:22.819Z,102035.83
2022-09-20T02:06:30.385Z,102031.41
2022-09-20T02:10:09.168Z,102028.05
2022-09-20T02:12:58.384Z,102027.52
2022-09-20T02:15:54.144Z,102024.45
2022-09-20T02:18:42.073Z,102029.98
2022-09-20T02:21:30.950Z,102030.27
2022-09-20T02:24:30.673Z,102034.81
2022-09-20T02:27:22.472Z,102034.29
2022-09-20T02:30:06.194Z,102031.22
2022-09-20T02:33:02.137Z,102029.29
2022-09-20T02:35:50.918Z,102038.84
2022-09-20T02:38:43.750Z,102038.28
2022-09-20T02:41:49.123Z,102028.05
2022-09-20T02:45:01.758Z,102032.04
2022-09-20T02:48:28.736Z,102029.81
2022-09-20T02:51:41.387Z,102025.59
2022-09-20T02:55:10.768Z,102026.87
2022-09-20T02:58:02.067Z,102029.84
2022-09-20T03:01:10.075Z,102035.01
2022-09-20T03:04:31.729Z,102046.42
2022-09-20T03:07:34.090Z,102043.02
2022-09-20T03:10:51.662Z,102043.16
2022-09-20T03:14:20.010Z,102039.13
2022-09-20T03:17:31.883Z,102050.34
2022-09-20T03:20:40.089Z,102045.80
2022-09-20T03:23:34.940Z,102050.97
2022-09-20T03:27:06.866Z,102053.06
2022-09-20T03:30:00.644Z,102059.73
2022-09-20T03:33:07.831Z,102058.23
2022-09-20T03:36:37.064Z,102060.35
2022-09-20T03:39:44.954Z,102052.30
2022-09-20T03:42:48.269Z,102056.69
2022-09-20T03:45:49.926Z,102055.02
2022-09-20T03:49:08.031Z,102055.02
2022-09-20T03:52:06.858Z,102057.24
2022-09-20T03:55:00.130Z,102057.80
2022-09-20T03:58:09.068Z,102049.53
2022-09-20T04:01:45.768Z,102049.23
2022-09-20T04:04:42.152Z,102043.55
2022-09-20T04:07:49.483Z,102052.70
2022-09-20T04:10:32.065Z,102052.99
2022-09-20T04:13:42.189Z,102047.63
2022-09-20T04:16:39.165Z,102053.09
2022-09-20T04:19:33.394Z,102055.45
2022-09-20T04:22:49.274Z,102045.70
2022-09-20T04:25:53.202Z,102042.63
2022-09-20T04:29:04.165Z,102048.02
2022-09-20T04:31:53.318Z,102054.14
2022-09-20T04:34:59.873Z,102055.58
2022-09-20T04:41:01.301Z,102056.82
2022-09-20T04:44:10.164Z,102058.84
2022-09-20T04:47:19.667Z,102062.31
2022-09-20T04:50:20.761Z,102062.09
2022-09-20T04:53:16.817Z,102065.35
2022-09-20T04:56:01.418Z,102070.48
2022-09-20T04:59:26.566Z,102065.65
2022-09-20T05:02:30.077Z,102079.91
2022-09-20T05:05:45.087Z,102077.06
2022-09-20T05:12:42.593Z,102078.76
2022-09-20T05:15:54.465Z,102085.37
2022-09-20T05:18:55.606Z,102080.30
2022-09-20T05:21:53.799Z,102079.51
2022-09-20T05:25:22.198Z,102090.63
2022-09-20T05:28:07.754Z,102086.09
2022-09-20T05:30:51.814Z,102088.99
2022-09-20T05:34:07.428Z,102080.52
2022-09-20T05:37:14.004Z,102086.21
2022-09-20T05:40:05.646Z,102097.10
2022-09-20T05:42:56.459Z,102097.00
2022-09-20T05:45:43.258Z,102094.39
2022-09-20T05:48:36.482Z,102096.09
2022-09-20T05:51:59.770Z,102095.17
2022-09-20T05:54:55.804Z,102096.25
2022-09-20T05:58:12.483Z,102099.55
2022-09-20T06:01:04.083Z,102104.85
2022-09-20T06:04:09.348Z,102099.91
2022-09-20T06:07:13.913Z,102105.02
2022-09-20T06:10:11.127Z,102100.30
2022-09-20T06:12:52.732Z,102105.93
2022-09-20T06:15:46.184Z,102100.02
2022-09-20T06:18:36.772Z,102103.02
2022-09-20T06:21:44.387Z,102106.84
2022-09-20T06:24:39.228Z,102103.05
2022-09-20T06:27:15.395Z,102101.48
2022-09-20T06:30:07.099Z,102104.46
2022-09-20T06:33:19.898Z,102106.06
2022-09-20T06:36:22.623Z,102100.77
2022-09-20T06:39:34.226Z,102106.91
2022-09-20T06:42:09.448Z,102107.66
2022-09-20T06:45:03.075Z,102118.59
2022-09-20T06:47:40.776Z,102116.03
2022-09-20T06:53:36.067Z,102116.55
2022-09-20T06:56:27.857Z,102116.55
2022-09-20T06:59:24.435Z,102113.02
2022-09-20T07:01:57.223Z,102114.34
2022-09-20T07:04:39.409Z,102125.55
2022-09-20T07:07:19.600Z,102118.52
2022-09-20T07:10:44.138Z,102121.95
2022-09-20T07:13:46.430Z,102120.05
2022-09-20T07:16:39.760Z,102124.44
2022-09-20T07:19:43.141Z,102120.05
2022-09-20T07:22:47.455Z,102121.95
2022-09-20T07:25:27.111Z,102119.92
2022-09-20T07:28:08.681Z,102122.02
2022-09-20T07:31:10.454Z,102122.41
2022-09-20T07:33:55.769Z,102127.18
2022-09-20T07:36:30.479Z,102122.02
2022-09-20T07:39:27.564Z,102126.59
2022-09-20T07:42:15.290Z,102130.23
2022-09-20T07:45:20.188Z,102137.22
2022-09-20T07:48:16.536Z,102135.23
2022-09-20T07:51:12.619Z,102139.38
2022-09-20T07:54:14.387Z,102139.94
2022-09-20T07:57:11.088Z,102133.95
2022-09-20T07:59:51.119Z,102146.84
2022-09-20T08:02:19.107Z,102145.16
2022-09-20T08:05:08.383Z,102153.99
2022-09-20T08:08:16.036Z,102145.88
2022-09-20T08:10:59.210Z,102148.24
2022-09-20T08:14:05.874Z,102147.00
2022-09-20T08:17:08.778Z,102142.74
2022-09-20T08:19:47.210Z,102155.56
2022-09-20T08:23:21.961Z,102157.00
2022-09-20T08:25:58.033Z,102163.25
2022-09-20T08:29:09.188Z,102160.20
2022-09-20T08:32:11.229Z,102159.84
2022-09-20T08:39:57.245Z,102168.34
2022-09-20T08:40:58.743Z,102160.86
2022-09-20T08:43:54.403Z,102166.19
2022-09-20T08:46:30.592Z,102169.79
2022-09-20T08:49:17.679Z,102174.36
2022-09-20T08:51:52.055Z,102164.39
2022-09-20T08:54:32.693Z,102165.50
2022-09-20T08:57:19.637Z,102162.20
2022-09-20T08:59:55.329Z,102158.90
2022-09-20T09:02:37.429Z,102160.50
2022-09-20T09:05:32.714Z,102154.68
2022-09-20T09:08:17.140Z,102150.85
2022-09-20T09:11:00.361Z,102155.70
2022-09-20T09:13:57.485Z,102157.55
2022-09-20T09:16:48.252Z,102154.32
2022-09-20T09:20:03.182Z,102147.03
2022-09-20T09:22:41.253Z,102147.48
2022-09-20T09:25:36.110Z,102150.30
2022-09-20T09:28:10.103Z,102147.00
2022-09-20T09:30:59.266Z,102149.74
2022-09-20T09:33:44.451Z,102147.39
2022-09-20T09:36:23.699Z,102141.11
2022-09-20T09:39:44.507Z,102137.19
2022-09-20T09:42:44.417Z,102141.70
2022-09-20T09:45:37.551Z,102148.56
2022-09-20T09:48:25.524Z,102135.23
2022-09-20T09:51:50.343Z,102127.15
2022-09-20T09:55:12.450Z,102136.83
2022-09-20T09:58:14.870Z,102138.95
2022-09-20T10:01:12.339Z,102142.78
2022-09-20T10:04:29.071Z,102145.43
2022-09-20T10:07:36.332Z,102138.95
2022-09-20T10:10:31.678Z,102140.49
2022-09-20T10:13:21.269Z,102136.89
2022-09-20T10:16:26.688Z,102133.07
2022-09-20T10:19:03.921Z,102133.88
2022-09-20T10:22:07.912Z,102130.29
2022-09-20T10:25:04.190Z,102133.43
2022-09-20T10:28:05.605Z,102123.59
2022-09-20T10:30:53.485Z,102119.95
2022-09-20T10:34:27.963Z,102126.43
2022-09-20T10:37:20.223Z,102124.99
2022-09-20T10:40:15.946Z,102117.44
2022-09-20T10:43:15.956Z,102114.20
2022-09-20T10:49:35.754Z,102104.69
2022-09-20T10:52:32.683Z,102114.66
2022-09-20T10:55:48.652Z,102111.55
2022-09-20T10:59:18.369Z,102106.71
2022-09-20T11:02:38.650Z,102108.19
2022-09-20T11:05:32.999Z,102112.86
2022-09-20T11:08:33.883Z,102114.07
2022-09-20T11:11:40.428Z,102116.95
2022-09-20T11:14:35.585Z,102117.30
2022-09-20T11:17:37.261Z,102115.15
2022-09-20T11:23:17.516Z,102114.89
2022-09-20T11:25:53.304Z,102120.19
2022-09-20T11:31:16.110Z,102116.10
2022-09-20T11:34:00.270Z,102116.20
2022-09-20T11:36:41.113Z,102116.59
2022-09-20T11:39:24.362Z,102116.10
2022-09-20T11:41:53.592Z,102115.97
2022-09-20T11:44:22.049Z,102116.59
2022-09-20T11:47:36.588Z,102118.88
2022-09-20T11:50:37.381Z,102112.01
2022-09-20T11:53:35.869Z,102109.13
2022-09-20T11:56:30.028Z,102111.42
2022-09-20T11:58:57.774Z,102108.77
2022-09-20T12:12:16.011Z,102099.88
2022-09-20T12:14:43.933Z,102102.79
2022-09-20T12:17:47.116Z,102099.88
2022-09-20T12:20:37.059Z,102105.51
2022-09-20T12:23:42.628Z,102106.39
2022-09-20T12:26:40.726Z,102100.73
2022-09-20T12:29:35.292Z,102097.37
2022-09-20T12:32:40.464Z,102098.57
2022-09-20T12:35:46.452Z,102096.61
2022-09-20T12:38:52.658Z,102092.52
2022-09-20T12:41:54.631Z,102097.13
2022-09-20T12:44:58.177Z,102090.98
2022-09-20T12:47:39.691Z,102087.49
2022-09-20T12:51:00.500Z,102094.13
2022-09-20T12:54:11.481Z,102081.70
2022-09-20T12:57:00.736Z,102085.82
2022-09-20T13:00:04.023Z,102089.19
2022-09-20T13:03:03.098Z,102083.66
2022-09-20T13:05:54.338Z,102077.42
2022-09-20T13:09:03.439Z,102070.75
2022-09-20T13:11:44.940Z,102079.05
2022-09-20T13:14:38.996Z,102081.31
2022-09-20T13:17:41.729Z,102073.53
2022-09-20T13:20:35.820Z,102072.48
2022-09-20T13:23:36.761Z,102069.80
2022-09-20T13:26:39.886Z,102069.02
2022-09-20T13:29:50.553Z,102076.80
2022-09-20T13:32:42.719Z,102069.31
2022-09-20T13:35:20.503Z,102072.25
2022-09-20T13:38:30.154Z,102068.66
2022-09-20T13:41:29.407Z,102076.18
2022-09-20T13:44:25.859Z,102066.20
2022-09-20T13:47:03.030Z,102073.56
2022-09-20T13:49:43.774Z,102062.25
2022-09-20T13:52:44.916Z,102061.70
2022-09-20T13:55:45.111Z,102063.95
2022-09-20T13:58:33.093Z,102061.53
2022-09-20T14:01:26.505Z,102063.85
2022-09-20T14:04:32.221Z,102069.02
2022-09-20T14:07:18.603Z,102070.91
2022-09-20T14:09:49.607Z,102064.41
2022-09-20T14:12:26.676Z,102070.20
2022-09-20T14:15:13.389Z,102069.12
2022-09-20T14:17:54.424Z,102067.45
2022-09-20T14:20:43.001Z,102064.08
2022-09-20T14:23:43.421Z,102064.66
2022-09-20T14:26:24.167Z,102064.57
2022-09-20T14:29:17.815Z,102065.38
2022-09-20T14:36:05.286Z,102066.95
2022-09-20T14:39:09.654Z,102065.84
2022-09-20T14:41:47.080Z,102059.63
2022-09-20T14:44:43.406Z,102067.67
2022-09-20T14:47:17.720Z,102067.91
2022-09-20T14:50:03.111Z,102068.76
2022-09-20T14:52:50.127Z,102070.78
2022-09-20T14:55:31.721Z,102071.77
2022-09-20T14:58:13.105Z,102066.56
2022-09-20T15:00:59.801Z,102067.28
2022-09-20T15:03:51.662Z,102071.99
2022-09-20T15:06:31.917Z,102065.52
2022-09-20T15:09:13.934Z,102061.66
2022-09-20T15:11:53.964Z,102063.55
2022-09-20T15:14:26.921Z,102064.99
2022-09-20T15:17:07.903Z,102069.93
2022-09-20T15:19:50.292Z,102073.04
2022-09-20T15:22:31.291Z,102073.27
2022-09-20T15:25:14.856Z,102082.65
2022-09-20T15:28:01.099Z,102082.13
2022-09-20T15:30:42.740Z,102081.18
2022-09-20T15:33:15.958Z,102086.12
2022-09-20T15:36:16.532Z,102080.88
2022-09-20T15:39:09.505Z,102080.79
2022-09-20T15:41:37.367Z,102082.81
2022-09-20T15:44:13.880Z,102080.30
2022-09-20T15:47:15.400Z,102083.53
2022-09-20T15:50:24.843Z,102076.08
2022-09-20T15:53:27.571Z,102083.24
2022-09-20T15:56:22.542Z,102083.08
2022-09-20T15:59:02.880Z,102081.15
2022-09-20T16:01:38.764Z,102088.30
2022-09-20T16:04:20.430Z,102085.30
2022-09-20T16:07:13.340Z,102086.48
2022-09-20T16:09:46.273Z,102093.80
2022-09-20T16:18:28.917Z,102086.80
2022-09-20T16:21:20.275Z,102094.59
2022-09-20T16:24:03.426Z,102097.46
2022-09-20T16:27:05.624Z,102100.70
2022-09-20T16:29:38.720Z,102102.23
2022-09-20T16:35:09.171Z,102099.59
2022-09-20T16:38:11.299Z,102094.16
2022-09-20T16:44:10.870Z,102105.27
2022-09-20T16:46:41.969Z,102098.02
2022-09-20T16:49:31.028Z,102096.19
2022-09-20T16:52:24.924Z,102096.55
2022-09-20T16:55:21.186Z,102104.39
2022-09-20T16:58:10.262Z,102107.80
2022-09-20T17:00:55.076Z,102100.57
2022-09-20T17:03:35.565Z,102117.47
2022-09-20T17:06:22.235Z,102115.12
2022-09-20T17:09:07.555Z,102119.01
2022-09-20T17:12:02.513Z,102117.80
2022-09-20T17:15:01.419Z,102121.55
2022-09-20T17:17:37.103Z,102125.81
2022-09-20T17:20:33.683Z,102128.88
2022-09-20T17:23:33.286Z,102128.39
2022-09-20T17:26:30.922Z,102136.53
2022-09-20T17:29:25.113Z,102138.07
2022-09-20T17:32:16.346Z,102144.64
2022-09-20T17:35:09.757Z,102138.40
2022-09-20T17:37:58.722Z,102142.74
2022-09-20T17:40:29.398Z,102150.40
2022-09-20T17:43:28.370Z,102145.49
2022-09-20T17:46:32.657Z,102139.45
2022-09-20T17:49:27.534Z,102147.75
2022-09-20T17:55:31.128Z,102142.88
2022-09-20T17:58:25.380Z,102148.63
2022-09-20T18:01:28.625Z,102149.80
2022-09-20T18:04:39.256Z,102155.07
2022-09-20T18:07:40.255Z,102162.00
2022-09-20T18:10:36.550Z,102167.23
2022-09-20T18:13:13.288Z,102167.56
2022-09-20T18:15:48.035Z,102166.41
2022-09-20T18:18:27.924Z,102171.84
2022-09-20T18:21:17.241Z,102170.51
2022-09-20T18:24:10.596Z,102178.62
2022-09-20T18:26:49.790Z,102184.04
2022-09-20T18:29:44.679Z,102175.41
2022-09-20T18:32:19.528Z,102186.23
2022-09-20T18:35:07.773Z,102191.98
2022-09-20T18:37:48.027Z,102196.20
2022-09-20T18:40:19.116Z,102200.26
2022-09-20T18:43:04.617Z,102198.43
2022-09-20T18:45:51.121Z,102203.10
2022-09-20T18:48:40.200Z,102211.38
2022-09-20T18:51:13.215Z,102203.98
2022-09-20T18:53:46.185Z,102218.11
2022-09-20T18:56:30.850Z,102219.62
2022-09-20T18:59:05.287Z,102218.24
2022-09-20T19:01:46.928Z,102222.46
2022-09-20T19:04:37.753Z,102216.54
2022-09-20T19:07:24.019Z,102225.60
2022-09-20T19:10:21.939Z,102228.48
2022-09-20T19:13:11.237Z,102227.30
2022-09-20T19:16:15.507Z,102236.06
2022-09-20T19:19:10.820Z,102238.94
2022-09-20T19:22:23.457Z,102237.08
2022-09-20T19:25:38.467Z,102244.14
2022-09-20T19:28:23.619Z,102245.02
2022-09-20T19:31:19.965Z,102249.70
2022-09-20T19:33:56.145Z,102253.42
2022-09-20T19:36:40.588Z,102254.96
2022-09-20T19:39:41.673Z,102255.25
2022-09-20T19:42:21.764Z,102254.96
2022-09-20T19:45:11.475Z,102255.94
2022-09-20T19:48:00.532Z,102259.30
2022-09-20T19:50:48.596Z,102256.95
2022-09-20T19:53:51.198Z,102254.73
2022-09-20T19:56:43.284Z,102261.34
2022-09-20T19:59:36.303Z,102258.42
2022-09-20T20:02:10.409Z,102265.32
2022-09-20T20:04:38.558Z,102266.41
2022-09-20T20:07:20.730Z,102267.29
2022-09-20T20:10:15.722Z,102267.61
2022-09-20T20:13:04.385Z,102258.46
2022-09-20T20:15:44.818Z,102255.61
2022-09-20T20:18:25.672Z,102268.95
2022-09-20T20:20:58.813Z,102266.11
2022-09-20T20:23:40.849Z,102269.80
2022-09-20T20:26:29.023Z,102265.26
2022-09-20T20:29:31.401Z,102266.93
2022-09-20T20:32:19.498Z,102279.58
2022-09-20T20:35:07.305Z,102275.23
2022-09-20T20:37:52.695Z,102273.70
2022-09-20T20:40:20.903Z,102277.42
2022-09-20T20:43:03.728Z,102282.81
2022-09-20T20:45:51.634Z,102279.29
2022-09-20T20:48:27.734Z,102280.66
2022-09-20T20:51:23.653Z,102283.18
2022-09-20T20:54:08.463Z,102282.36
2022-09-20T20:57:01.836Z,102289.45
2022-09-20T20:59:38.928Z,102285.73
2022-09-20T21:02:30.975Z,102286.71
2022-09-20T21:05:25.693Z,102283.18
2022-09-20T21:07:59.776Z,102283.83
2022-09-20T21:10:39.488Z,102282.95
2022-09-20T21:13:21.554Z,102285.50
2022-09-20T21:15:54.370Z,102290.24
2022-09-20T21:18:34.554Z,102291.77
2022-09-20T21:21:38.645Z,102285.17
2022-09-20T21:24:22.137Z,102289.91
2022-09-20T21:27:23.964Z,102284.52
2022-09-20T21:43:58.963Z,102284.16
2022-09-20T21:46:30.366Z,102283.11
2022-09-20T21:48:59.963Z,102285.79
2022-09-20T21:51:43.259Z,102282.20
2022-09-20T21:54:16.144Z,102285.59
2022-09-20T21:56:47.399Z,102280.73
2022-09-20T21:59:21.581Z,102283.90
2022-09-20T22:02:00.570Z,102277.65
2022-09-20T22:04:30.396Z,102287.75
2022-09-20T22:07:33.923Z,102285.73
2022-09-20T22:10:14.731Z,102286.94
2022-09-20T22:12:49.421Z,102288.08
2022-09-20T22:15:18.021Z,102279.80
2022-09-20T22:17:56.615Z,102278.99
2022-09-20T22:23:51.659Z,102280.13
2022-09-20T22:26:29.790Z,102276.77
2022-09-20T22:29:02.551Z,102282.52
2022-09-20T22:31:36.021Z,102279.94
2022-09-20T22:34:08.930Z,102273.04
2022-09-20T22:36:41.198Z,102270.00
2022-09-20T22:39:17.375Z,102273.37
2022-09-20T22:41:51.096Z,102273.37
2022-09-20T22:44:43.950Z,102270.82
2022-09-20T22:47:16.549Z,102265.75
2022-09-20T22:49:49.494Z,102274.19
2022-09-20T22:52:31.859Z,102276.21
2022-09-20T22:55:05.173Z,102272.81
2022-09-20T22:57:46.900Z,102275.66
2022-09-20T23:00:20.859Z,102273.47
2022-09-20T23:02:57.479Z,102272.32
2022-09-20T23:05:30.373Z,102270.59
2022-09-20T23:08:09.331Z,102271.24
2022-09-20T23:10:37.101Z,102274.12
2022-09-20T23:13:10.797Z,102273.63
2022-09-20T23:15:38.971Z,102274.28
2022-09-20T23:18:13.619Z,102272.55
2022-09-20T23:21:01.763Z,102269.18
2022-09-20T23:23:55.791Z,102269.02
2022-09-20T23:26:28.981Z,102275.72
2022-09-20T23:29:15.275Z,102270.33
2022-09-20T23:32:03.826Z,102271.83
2022-09-20T23:35:12.078Z,102275.16
2022-09-20T23:37:54.018Z,102274.02
2022-09-20T23:40:38.888Z,102272.84
2022-09-20T23:43:14.551Z,102275.16
2022-09-20T23:45:54.697Z,102277.55
2022-09-20T23:48:44.482Z,102271.83
2022-09-20T23:51:17.227Z,102274.15
2022-09-20T23:53:57.547Z,102272.78
2022-09-20T23:56:31.290Z,102269.41
2022-09-20T23:59:24.298Z,102269.84
